Time;durP1;ratioP1;P1;durP2;ratioP2;P2;SDS_P1;SDS_P2;PMS_P1;PMS_P2;Temp;Humidity;BMP_temperature;BMP_pressure;BME280_temperature;BME280_humidity;BME280_pressure;Samples;Min_cycle;Max_cycle;Signal;HPM_P1;HPM_P2
2021/10/05 00:02:20;;;;;;;5.00;1.40;;;;;;;11.36;100.00;101111.84;5223711;28;20490;-72
2021/10/05 00:04:51;;;;;;;3.45;1.00;;;;;;;11.43;100.00;101108.47;5225285;28;20025;-71
2021/10/05 00:07:21;;;;;;;8.45;1.10;;;;;;;11.38;100.00;101104.44;5224779;28;20116;-72
2021/10/05 00:09:52;;;;;;;8.85;1.50;;;;;;;11.30;100.00;101104.44;5224571;28;20028;-72
2021/10/05 00:12:23;;;;;;;3.70;1.40;;;;;;;11.26;100.00;101105.78;5225385;28;20079;-71
2021/10/05 00:14:53;;;;;;;3.22;1.45;;;;;;;11.20;100.00;101109.13;5224376;28;20021;-71
2021/10/05 00:17:25;;;;;;;5.07;1.10;;;;;;;11.15;100.00;101109.59;5223954;28;20480;-72
2021/10/05 00:19:56;;;;;;;3.63;1.00;;;;;;;11.08;100.00;101113.94;5224399;28;20024;-71
2021/10/05 00:22:27;;;;;;;5.75;0.98;;;;;;;11.01;100.00;101118.28;5224941;28;20028;-72
2021/10/05 00:24:57;;;;;;;6.93;1.00;;;;;;;10.99;100.00;101106.84;5224721;28;20083;-72
2021/10/05 00:27:28;;;;;;;5.40;0.75;;;;;;;10.97;100.00;101102.66;5224272;28;20027;-71
2021/10/05 00:29:59;;;;;;;6.45;1.13;;;;;;;10.94;100.00;101102.97;5224324;28;20119;-72
2021/10/05 00:32:29;;;;;;;1.25;0.68;;;;;;;10.93;100.00;101087.88;5224616;28;20037;-72
2021/10/05 00:35:00;;;;;;;3.72;1.00;;;;;;;10.97;100.00;101092.75;5224374;28;20017;-71
2021/10/05 00:37:30;;;;;;;8.18;1.65;;;;;;;10.93;100.00;101088.72;5224469;28;20350;-72
2021/10/05 00:40:01;;;;;;;10.05;1.10;;;;;;;10.91;100.00;101081.84;5224299;28;20028;-72
2021/10/05 00:42:32;;;;;;;6.13;1.30;;;;;;;10.90;100.00;101075.63;5224111;28;20072;-71
2021/10/05 00:45:03;;;;;;;5.90;0.88;;;;;;;10.88;100.00;101067.72;5224322;28;20013;-71
2021/10/05 00:47:34;;;;;;;3.65;1.15;;;;;;;10.90;100.00;101064.91;5222834;28;20074;-72
2021/10/05 00:50:06;;;;;;;4.60;0.80;;;;;;;10.89;100.00;101057.81;5223857;28;20032;-71
2021/10/05 00:52:37;;;;;;;5.35;1.15;;;;;;;10.87;100.00;101059.84;5223982;28;20036;-73
2021/10/05 00:55:08;;;;;;;2.78;0.85;;;;;;;10.82;100.00;101052.28;5224440;28;20009;-72
2021/10/05 00:57:38;;;;;;;3.83;0.90;;;;;;;10.84;100.00;101050.28;5222746;28;20033;-72
2021/10/05 01:00:09;;;;;;;5.72;1.00;;;;;;;10.84;100.00;101052.97;5223565;28;20112;-71
2021/10/05 01:02:41;;;;;;;2.47;0.88;;;;;;;10.80;100.00;101051.63;5223929;28;20107;-72
2021/10/05 01:05:12;;;;;;;4.28;1.17;;;;;;;10.81;100.00;101053.28;5223796;28;20025;-72
2021/10/05 01:07:47;;;;;;;3.95;0.90;;;;;;;10.79;100.00;101038.34;5224036;28;20027;-72
2021/10/05 01:10:18;;;;;;;10.70;1.02;;;;;;;10.86;100.00;101042.06;5223649;28;20455;-71
2021/10/05 01:12:51;;;;;;;3.50;0.85;;;;;;;10.84;100.00;101039.56;5223879;28;20108;-71
2021/10/05 01:15:25;;;;;;;3.85;1.25;;;;;;;10.88;100.00;101034.69;5223441;28;20024;-72
2021/10/05 01:17:56;;;;;;;4.73;0.90;;;;;;;10.94;100.00;101030.50;5223725;28;20029;-72
2021/10/05 01:20:27;;;;;;;2.78;0.50;;;;;;;11.03;100.00;101024.16;5223561;28;20031;-72
2021/10/05 01:22:58;;;;;;;3.95;1.15;;;;;;;11.08;100.00;101022.66;5223793;28;20104;-72
2021/10/05 01:25:31;;;;;;;9.13;1.20;;;;;;;11.17;100.00;101015.44;5223876;28;20021;-72
2021/10/05 01:28:02;;;;;;;3.38;1.20;;;;;;;11.24;100.00;101021.81;5223219;28;20029;-73
2021/10/05 01:30:32;;;;;;;5.15;0.80;;;;;;;11.29;100.00;101015.94;5223089;28;20453;-72
2021/10/05 01:33:03;;;;;;;4.82;1.02;;;;;;;11.29;100.00;101015.94;5223377;28;20108;-73
2021/10/05 01:35:35;;;;;;;1.73;0.70;;;;;;;11.30;100.00;101009.59;5223040;28;20025;-73
2021/10/05 01:38:06;;;;;;;7.78;1.27;;;;;;;11.31;100.00;101004.06;5223819;28;20047;-72
2021/10/05 01:40:37;;;;;;;4.45;0.88;;;;;;;11.33;100.00;101004.72;5223041;28;20474;-72
2021/10/05 01:43:08;;;;;;;4.97;1.45;;;;;;;11.36;100.00;100996.31;5223245;28;20025;-71
2021/10/05 01:45:39;;;;;;;3.85;0.73;;;;;;;11.40;100.00;100992.31;5223090;28;20147;-72
2021/10/05 01:48:10;;;;;;;3.63;1.02;;;;;;;11.44;100.00;100991.94;5223018;28;20028;-73
2021/10/05 01:50:41;;;;;;;4.80;0.80;;;;;;;11.46;100.00;100979.22;5222275;28;20029;-73
2021/10/05 01:53:12;;;;;;;3.80;0.98;;;;;;;11.48;100.00;100977.19;5223224;28;20041;-73
2021/10/05 01:55:42;;;;;;;4.18;1.00;;;;;;;11.53;100.00;100972.13;5222969;28;20033;-73
2021/10/05 01:58:13;;;;;;;4.20;1.05;;;;;;;11.54;100.00;100969.28;5222907;28;20035;-72
2021/10/05 02:00:43;;;;;;;4.32;1.00;;;;;;;11.49;100.00;100966.25;5222656;28;20108;-72
2021/10/05 02:03:15;;;;;;;6.95;0.93;;;;;;;11.48;100.00;100966.44;5222583;28;20102;-73
2021/10/05 02:05:46;;;;;;;6.43;1.02;;;;;;;11.47;100.00;100964.75;5222987;28;20029;-73
2021/10/05 02:08:17;;;;;;;3.65;0.85;;;;;;;11.38;100.00;100963.91;5222973;28;20048;-73
2021/10/05 02:10:48;;;;;;;3.90;1.02;;;;;;;11.33;100.00;100952.84;5222766;28;20067;-73
2021/10/05 02:13:18;;;;;;;3.17;0.80;;;;;;;11.29;100.00;100959.56;5222347;28;20532;-73
2021/10/05 02:15:49;;;;;;;2.97;0.98;;;;;;;11.22;100.00;100953.19;5222305;28;20498;-73
2021/10/05 02:18:20;;;;;;;2.30;0.68;;;;;;;11.17;100.00;100948.31;5222401;28;20112;-71
2021/10/05 02:20:50;;;;;;;4.85;0.90;;;;;;;11.20;100.00;100939.09;5222432;28;20361;-72
2021/10/05 02:23:21;;;;;;;4.10;1.02;;;;;;;11.19;100.00;100932.03;5222050;28;20032;-73
2021/10/05 02:25:52;;;;;;;5.00;1.52;;;;;;;11.17;100.00;100934.91;5222730;28;20116;-72
2021/10/05 02:28:22;;;;;;;4.45;0.65;;;;;;;11.13;100.00;100929.00;5222260;28;20477;-72
2021/10/05 02:30:54;;;;;;;5.68;1.00;;;;;;;11.11;100.00;100931.03;5222287;28;20033;-72
2021/10/05 02:33:24;;;;;;;6.53;1.30;;;;;;;11.11;100.00;100925.66;5222592;28;20377;-72
2021/10/05 02:35:55;;;;;;;5.07;1.05;;;;;;;11.08;100.00;100915.25;5222127;28;20107;-73
2021/10/05 02:38:25;;;;;;;2.72;1.05;;;;;;;11.05;100.00;100914.78;5222467;28;20147;-73
2021/10/05 02:40:55;;;;;;;3.47;1.35;;;;;;;11.02;100.00;100905.19;5221999;28;20028;-73
2021/10/05 02:43:26;;;;;;;4.97;0.93;;;;;;;11.04;100.00;100896.97;5222252;28;20401;-73
2021/10/05 02:45:56;;;;;;;3.90;0.85;;;;;;;11.03;100.00;100892.59;5221826;28;20024;-73
2021/10/05 02:48:27;;;;;;;1.45;1.15;;;;;;;11.12;100.00;100892.44;5222205;28;20025;-73
2021/10/05 02:50:58;;;;;;;1.48;0.68;;;;;;;11.06;100.00;100887.75;5221457;28;20075;-72
2021/10/05 02:53:28;;;;;;;3.97;1.00;;;;;;;11.00;100.00;100880.38;5221857;28;20386;-72
2021/10/05 02:55:59;;;;;;;3.80;0.93;;;;;;;10.97;100.00;100879.84;5221101;28;20449;-72
2021/10/05 02:58:29;;;;;;;8.20;1.00;;;;;;;10.95;100.00;100877.34;5221947;28;20021;-73
2021/10/05 03:01:00;;;;;;;2.05;0.70;;;;;;;10.99;100.00;100864.41;5221879;28;20024;-72
2021/10/05 03:03:30;;;;;;;2.65;0.88;;;;;;;10.98;100.00;100854.69;5221533;28;20489;-74
2021/10/05 03:06:01;;;;;;;3.58;0.80;;;;;;;10.96;100.00;100849.50;5221957;28;20134;-73
2021/10/05 03:08:31;;;;;;;4.10;0.98;;;;;;;10.93;100.00;100848.97;5221468;28;20036;-73
2021/10/05 03:11:03;;;;;;;4.97;0.73;;;;;;;10.93;100.00;100854.34;5222120;28;20497;-72
2021/10/05 03:13:35;;;;;;;6.18;0.90;;;;;;;10.95;100.00;100845.13;5221705;28;20063;-72
2021/10/05 03:16:07;;;;;;;6.97;1.10;;;;;;;10.95;100.00;100838.94;5221804;28;20557;-71
2021/10/05 03:18:41;;;;;;;3.58;0.85;;;;;;;10.91;100.00;100827.69;5221995;28;20028;-71
2021/10/05 03:21:11;;;;;;;4.40;1.15;;;;;;;10.91;100.00;100827.69;5221851;28;20552;-72
2021/10/05 03:23:42;;;;;;;5.20;1.15;;;;;;;10.89;100.00;100822.50;5220667;28;20025;-72
2021/10/05 03:26:13;;;;;;;6.03;1.00;;;;;;;10.81;100.00;100817.13;5221798;28;20025;-72
2021/10/05 03:28:44;;;;;;;7.32;0.85;;;;;;;10.80;100.00;100811.94;5220254;28;20043;-71
2021/10/05 03:31:15;;;;;;;3.70;0.98;;;;;;;10.74;100.00;100812.59;5221489;28;20413;-73
2021/10/05 03:33:46;;;;;;;4.22;0.90;;;;;;;10.68;100.00;100807.91;5221692;28;20028;-73
2021/10/05 03:36:16;;;;;;;3.90;0.98;;;;;;;10.66;100.00;100807.25;5222684;28;20025;-73
2021/10/05 03:38:47;;;;;;;5.20;0.98;;;;;;;10.61;100.00;100800.53;5224168;28;20108;-72
2021/10/05 03:41:17;;;;;;;4.82;1.08;;;;;;;10.59;100.00;100804.38;5225067;28;20024;-72
2021/10/05 03:43:48;;;;;;;4.63;1.00;;;;;;;10.51;100.00;100799.84;5225568;28;20032;-72
2021/10/05 03:46:18;;;;;;;7.63;1.33;;;;;;;10.42;100.00;100798.16;5225414;28;20017;-72
2021/10/05 03:48:49;;;;;;;3.10;0.90;;;;;;;10.39;100.00;100793.13;5224969;28;20082;-72
2021/10/05 03:51:19;;;;;;;7.03;1.13;;;;;;;10.37;100.00;100787.94;5225063;28;20413;-72
2021/10/05 03:53:50;;;;;;;1.85;0.80;;;;;;;10.35;100.00;100778.41;5225099;28;20024;-71
2021/10/05 03:56:20;;;;;;;3.42;0.90;;;;;;;10.33;100.00;100778.53;5225528;28;20025;-72
2021/10/05 03:58:51;;;;;;;2.38;1.00;;;;;;;10.28;100.00;100775.53;5225145;28;20549;-72
2021/10/05 04:01:21;;;;;;;2.28;1.00;;;;;;;10.27;100.00;100762.28;5225731;28;20052;-72
2021/10/05 04:03:52;;;;;;;3.70;1.05;;;;;;;10.20;100.00;100753.22;5224739;28;20020;-72
2021/10/05 04:06:22;;;;;;;5.07;0.80;;;;;;;10.16;100.00;100751.88;5225591;28;20427;-72
2021/10/05 04:08:53;;;;;;;1.98;0.88;;;;;;;10.17;100.00;100740.13;5224417;28;20029;-72
2021/10/05 04:11:23;;;;;;;2.15;0.95;;;;;;;10.12;100.00;100743.31;5224882;28;20029;-72
2021/10/05 04:13:54;;;;;;;8.77;1.33;;;;;;;10.15;100.00;100737.63;5224951;28;20068;-72
2021/10/05 04:16:24;;;;;;;6.75;0.90;;;;;;;10.15;100.00;100736.78;5224401;28;20025;-72
2021/10/05 04:18:55;;;;;;;5.60;0.90;;;;;;;10.16;100.00;100741.13;5224939;28;20025;-71
2021/10/05 04:21:26;;;;;;;6.90;1.00;;;;;;;10.11;100.00;100734.44;5225093;28;20032;-72
2021/10/05 04:23:57;;;;;;;4.90;0.90;;;;;;;10.07;100.00;100730.41;5225022;28;20025;-71
2021/10/05 04:26:28;;;;;;;2.83;1.40;;;;;;;10.04;100.00;100728.06;5224591;28;20035;-72
2021/10/05 04:28:58;;;;;;;2.97;1.15;;;;;;;10.01;100.00;100722.19;5224499;28;20107;-73
2021/10/05 04:31:29;;;;;;;1.63;0.85;;;;;;;9.95;100.00;100720.19;5224560;28;20024;-72
2021/10/05 04:33:59;;;;;;;8.13;0.93;;;;;;;9.94;100.00;100708.63;5224620;28;20029;-72
2021/10/05 04:36:30;;;;;;;4.22;0.93;;;;;;;9.89;100.00;100707.41;5224531;28;20021;-72
2021/10/05 04:39:01;;;;;;;3.13;1.10;;;;;;;9.82;100.00;100699.22;5224402;28;20086;-72
2021/10/05 04:41:31;;;;;;;5.38;1.00;;;;;;;9.80;100.00;100702.06;5224269;28;20029;-72
2021/10/05 04:44:02;;;;;;;4.80;1.08;;;;;;;9.80;100.00;100706.59;5224395;28;20021;-71
2021/10/05 04:46:32;;;;;;;7.93;1.45;;;;;;;9.79;100.00;100688.84;5224293;28;20104;-71
2021/10/05 04:49:03;;;;;;;5.93;1.17;;;;;;;9.76;100.00;100695.34;5223611;28;20504;-72
2021/10/05 04:51:34;;;;;;;2.80;0.90;;;;;;;9.74;100.00;100688.47;5224391;28;20035;-72
2021/10/05 04:54:04;;;;;;;6.13;1.20;;;;;;;9.75;100.00;100687.47;5223829;28;20033;-71
2021/10/05 04:56:34;;;;;;;3.50;1.10;;;;;;;9.69;100.00;100688.97;5224062;28;20074;-71
2021/10/05 04:59:05;;;;;;;4.82;1.00;;;;;;;9.64;100.00;100687.78;5224169;28;20028;-71
2021/10/05 05:01:35;;;;;;;3.55;1.00;;;;;;;9.62;100.00;100693.31;5223852;28;20511;-71
2021/10/05 05:04:06;;;;;;;5.88;1.05;;;;;;;9.60;100.00;100689.97;5223953;28;20497;-70
2021/10/05 05:06:38;;;;;;;3.38;0.98;;;;;;;9.58;100.00;100686.59;5223643;28;20029;-73
2021/10/05 05:09:08;;;;;;;9.32;0.90;;;;;;;9.57;100.00;100680.41;5222278;28;20021;-74
2021/10/05 05:11:39;;;;;;;3.08;0.95;;;;;;;9.59;100.00;100685.63;5223840;28;20044;-74
2021/10/05 05:14:12;;;;;;;3.13;1.05;;;;;;;9.67;100.00;100684.78;5223703;28;20390;-73
2021/10/05 05:16:43;;;;;;;3.55;1.02;;;;;;;9.70;100.00;100676.44;5223353;28;20460;-73
2021/10/05 05:19:14;;;;;;;4.72;1.10;;;;;;;9.77;100.00;100670.22;5223481;28;20104;-73
2021/10/05 05:21:45;;;;;;;7.18;1.60;;;;;;;9.86;100.00;100665.72;5223545;28;20033;-72
2021/10/05 05:24:15;;;;;;;2.33;1.05;;;;;;;9.92;100.00;100657.00;5223750;28;20071;-72
2021/10/05 05:26:46;;;;;;;4.65;1.40;;;;;;;9.96;100.00;100658.38;5223800;28;20021;-73
2021/10/05 05:29:16;;;;;;;4.00;1.10;;;;;;;10.04;100.00;100652.16;5222929;28;20032;-72
2021/10/05 05:31:48;;;;;;;4.20;1.00;;;;;;;10.06;100.00;100642.97;5223490;28;20081;-74
2021/10/05 05:34:20;;;;;;;7.70;1.88;;;;;;;10.04;100.00;100639.63;5223498;28;20082;-73
2021/10/05 05:36:51;;;;;;;6.07;2.92;;;;;;;9.97;100.00;100630.56;5223251;28;20028;-73
2021/10/05 05:39:22;;;;;;;4.13;0.80;;;;;;;9.97;100.00;100633.22;5222865;28;20036;-73
2021/10/05 05:41:52;;;;;;;2.53;1.23;;;;;;;9.95;100.00;100627.22;5221923;28;20029;-72
2021/10/05 05:44:23;;;;;;;5.03;1.02;;;;;;;10.00;100.00;100637.44;5222998;28;20108;-72
2021/10/05 05:46:53;;;;;;;4.10;1.30;;;;;;;10.01;100.00;100623.84;5223048;28;20033;-73
2021/10/05 05:49:24;;;;;;;2.92;1.17;;;;;;;9.95;100.00;100616.50;5222691;28;20108;-75
2021/10/05 05:51:55;;;;;;;4.57;1.10;;;;;;;9.93;100.00;100626.53;5222876;28;20032;-73
2021/10/05 05:54:25;;;;;;;6.32;1.17;;;;;;;9.95;100.00;100627.22;5222518;28;20380;-73
2021/10/05 05:56:56;;;;;;;3.03;0.93;;;;;;;9.95;100.00;100613.81;5222718;28;20378;-74
2021/10/05 05:59:26;;;;;;;5.82;1.15;;;;;;;10.01;100.00;100623.03;5221798;28;20098;-73
2021/10/05 06:01:57;;;;;;;1.60;0.98;;;;;;;10.07;100.00;100620.50;5222775;28;20032;-74
2021/10/05 06:04:27;;;;;;;6.20;1.42;;;;;;;10.10;100.00;100622.03;5223083;28;20439;-72
2021/10/05 06:06:58;;;;;;;6.82;1.00;;;;;;;10.11;100.00;100623.69;5222543;28;20040;-74
2021/10/05 06:09:28;;;;;;;5.32;1.23;;;;;;;10.13;100.00;100611.78;5222422;28;20108;-73
2021/10/05 06:12:02;;;;;;;6.00;1.30;;;;;;;10.13;100.00;100608.25;5222891;28;20025;-74
2021/10/05 06:14:33;;;;;;;4.00;1.13;;;;;;;10.16;100.00;100602.56;5222668;28;20366;-71
2021/10/05 06:17:06;;;;;;;5.55;1.25;;;;;;;10.19;100.00;100607.63;5222665;28;20025;-72
2021/10/05 06:19:36;;;;;;;6.15;1.50;;;;;;;10.29;100.00;100607.44;5222021;28;20032;-71
2021/10/05 06:22:07;;;;;;;3.55;1.27;;;;;;;10.33;100.00;100603.41;5222608;28;20033;-71
2021/10/05 06:24:37;;;;;;;7.53;1.13;;;;;;;10.34;100.00;100591.66;5222227;28;20067;-71
2021/10/05 06:27:08;;;;;;;6.47;1.00;;;;;;;10.37;100.00;100585.97;5222508;28;20028;-72
2021/10/05 06:29:38;;;;;;;9.00;1.70;;;;;;;10.43;100.00;100590.66;5221705;28;20028;-72
2021/10/05 06:32:09;;;;;;;4.35;1.05;;;;;;;10.56;100.00;100582.91;5222792;28;20032;-72
2021/10/05 06:34:39;;;;;;;4.28;1.10;;;;;;;10.78;100.00;100578.63;5222256;28;20021;-72
2021/10/05 06:37:10;;;;;;;4.55;0.95;;;;;;;11.10;100.00;100572.28;5222407;28;20032;-72
2021/10/05 06:39:40;;;;;;;6.80;1.15;;;;;;;11.51;100.00;100576.56;5221875;28;20112;-72
2021/10/05 06:42:11;;;;;;;4.35;1.00;;;;;;;12.00;100.00;100584.25;5221733;28;20056;-72
2021/10/05 06:44:41;;;;;;;3.88;0.80;;;;;;;12.22;100.00;100569.94;5222179;28;20394;-72
2021/10/05 06:47:12;;;;;;;4.82;1.08;;;;;;;12.54;100.00;100571.41;5221864;28;20037;-72
2021/10/05 06:49:43;;;;;;;4.22;1.40;;;;;;;12.48;100.00;100566.78;5221828;28;20021;-72
2021/10/05 06:52:13;;;;;;;2.13;0.90;;;;;;;12.57;100.00;100567.53;5222140;28;20033;-72
2021/10/05 06:54:44;;;;;;;2.50;1.05;;;;;;;12.89;100.00;100566.28;5221571;28;20029;-72
2021/10/05 06:57:14;;;;;;;6.55;1.02;;;;;;;13.13;100.00;100563.28;5222308;28;20067;-72
2021/10/05 06:59:44;;;;;;;5.05;0.77;;;;;;;13.20;100.00;100552.56;5221751;28;20051;-72
2021/10/05 07:02:15;;;;;;;4.22;1.23;;;;;;;13.82;100.00;100551.13;5221887;28;20055;-72
2021/10/05 07:04:45;;;;;;;6.68;1.58;;;;;;;13.91;100.00;100544.59;5221850;28;20334;-72
2021/10/05 07:07:16;;;;;;;6.35;1.13;;;;;;;14.03;100.00;100526.81;5221527;28;20056;-72
2021/10/05 07:09:47;;;;;;;9.23;0.93;;;;;;;14.17;100.00;100531.28;5222163;28;20029;-72
2021/10/05 07:12:17;;;;;;;5.88;0.90;;;;;;;14.35;100.00;100516.44;5226066;28;20027;-72
2021/10/05 07:14:48;;;;;;;4.00;1.02;;;;;;;14.44;100.00;100528.75;5224425;28;20064;-72
2021/10/05 07:17:18;;;;;;;6.05;1.20;;;;;;;14.50;100.00;100517.16;5226432;28;20017;-72
2021/10/05 07:19:49;;;;;;;4.22;1.10;;;;;;;14.72;100.00;100510.66;5225597;28;20035;-72
2021/10/05 07:22:19;;;;;;;8.30;1.05;;;;;;;14.80;100.00;100514.19;5226077;28;20389;-72
2021/10/05 07:24:50;;;;;;;3.08;1.00;;;;;;;15.07;100.00;100505.16;5223458;28;20152;-72
2021/10/05 07:27:21;;;;;;;7.35;1.00;;;;;;;15.07;100.00;100510.56;5223322;28;20098;-72
2021/10/05 07:29:51;;;;;;;4.72;1.30;;;;;;;15.00;100.00;100509.69;5224069;28;20033;-72
2021/10/05 07:32:22;;;;;;;3.83;1.63;;;;;;;15.09;100.00;100503.06;5224701;28;20032;-72
2021/10/05 07:34:52;;;;;;;7.10;1.30;;;;;;;15.28;100.00;100486.06;5224663;28;20544;-72
2021/10/05 07:37:23;;;;;;;3.15;0.90;;;;;;;15.35;100.00;100496.06;5224473;28;20478;-72
2021/10/05 07:39:54;;;;;;;8.05;0.88;;;;;;;15.17;100.00;100483.16;5224285;28;20421;-72
2021/10/05 07:42:25;;;;;;;6.43;1.10;;;;;;;14.94;100.00;100487.03;5224333;28;20028;-72
2021/10/05 07:44:56;;;;;;;4.45;1.27;;;;;;;15.17;100.00;100485.84;5223915;28;20075;-72
2021/10/05 07:47:26;;;;;;;6.72;1.38;;;;;;;15.42;100.00;100478.00;5223938;28;20032;-72
2021/10/05 07:49:57;;;;;;;3.40;1.00;;;;;;;15.59;100.00;100475.69;5224062;28;20066;-72
2021/10/05 07:52:27;;;;;;;3.72;1.38;;;;;;;15.85;100.00;100456.78;5224134;28;20032;-72
2021/10/05 07:54:57;;;;;;;5.38;1.10;;;;;;;15.69;100.00;100468.03;5223743;28;20024;-72
2021/10/05 07:57:28;;;;;;;5.97;1.05;;;;;;;15.80;100.00;100460.09;5223791;28;20064;-72
2021/10/05 07:59:59;;;;;;;5.32;1.25;;;;;;;15.91;100.00;100449.69;5213662;28;20087;-72
2021/10/05 08:02:29;;;;;;;3.60;0.93;;;;;;;16.03;100.00;100446.13;5224222;28;20100;-73
2021/10/05 08:05:00;;;;;;;2.47;0.90;;;;;;;16.33;100.00;100445.63;5223968;28;20017;-73
2021/10/05 08:07:30;;;;;;;5.32;1.10;;;;;;;16.53;100.00;100445.56;5223592;28;20052;-73
2021/10/05 08:10:01;;;;;;;2.22;0.90;;;;;;;16.73;100.00;100438.19;5222422;28;20075;-73
2021/10/05 08:12:31;;;;;;;3.78;1.13;;;;;;;17.31;100.00;100432.59;5224145;28;20036;-73
2021/10/05 08:15:03;;;;;;;7.28;1.42;;;;;;;17.08;100.00;100425.06;5223689;28;20409;-73
2021/10/05 08:17:34;;;;;;;4.95;0.68;;;;;;;16.92;100.00;100427.44;5223724;28;20025;-73
2021/10/05 08:20:06;;;;;;;3.00;1.00;;;;;;;16.97;100.00;100431.19;5223978;28;20025;-73
2021/10/05 08:22:37;;;;;;;2.70;1.02;;;;;;;17.00;100.00;100438.03;5223691;28;20497;-73
2021/10/05 08:25:08;;;;;;;5.25;0.98;;;;;;;17.12;100.00;100422.75;5223895;28;20492;-73
2021/10/05 08:27:39;;;;;;;5.65;1.08;;;;;;;17.01;100.00;100418.00;5223632;28;20032;-73
2021/10/05 08:30:10;;;;;;;5.75;0.82;;;;;;;16.77;100.00;100387.97;5223582;28;20116;-73
2021/10/05 08:32:41;;;;;;;3.65;0.70;;;;;;;17.00;100.00;100398.22;5223411;28;20056;-73
2021/10/05 08:35:13;;;;;;;5.68;1.55;;;;;;;17.07;100.00;100390.06;5223051;28;20367;-73
2021/10/05 08:37:43;;;;;;;6.03;1.20;;;;;;;17.25;100.00;100384.69;5223526;28;20036;-73
2021/10/05 08:40:14;;;;;;;2.65;1.08;;;;;;;17.79;100.00;100382.34;5223304;28;20029;-73
2021/10/05 08:42:45;;;;;;;5.63;1.65;;;;;;;17.41;100.00;100382.47;5223359;28;20509;-73
2021/10/05 08:45:17;;;;;;;4.82;1.35;;;;;;;17.21;100.00;100364.50;5223276;28;20017;-73
2021/10/05 08:47:48;;;;;;;2.30;1.00;;;;;;;17.55;100.00;100348.75;5223264;28;20032;-73
2021/10/05 08:50:19;;;;;;;2.22;0.70;;;;;;;17.87;100.00;100346.75;5223337;28;20328;-73
2021/10/05 08:52:49;;;;;;;3.13;1.05;;;;;;;17.99;100.00;100336.00;5223087;28;20021;-73
2021/10/05 08:55:20;;;;;;;2.65;0.80;;;;;;;17.95;100.00;100349.19;5221669;28;20027;-74
2021/10/05 08:57:51;;;;;;;9.70;1.17;;;;;;;17.89;100.00;100336.53;5222961;28;20103;-73
2021/10/05 09:00:23;;;;;;;4.75;1.00;;;;;;;18.07;100.00;100327.53;5222835;28;20165;-73
2021/10/05 09:02:54;;;;;;;6.15;1.27;;;;;;;17.91;100.00;100333.56;5223405;28;20033;-73
2021/10/05 09:05:26;;;;;;;4.20;1.10;;;;;;;17.90;100.00;100321.91;5222585;28;20021;-73
2021/10/05 09:07:57;;;;;;;5.95;1.08;;;;;;;18.19;100.00;100319.47;5222946;28;20099;-73
2021/10/05 09:10:33;;;;;;;5.22;0.95;;;;;;;17.99;100.00;100317.81;5222924;28;20498;-73
2021/10/05 09:13:04;;;;;;;6.18;1.52;;;;;;;17.33;100.00;100326.66;5222562;28;20061;-73
2021/10/05 09:15:34;;;;;;;3.22;0.90;;;;;;;16.82;100.00;100319.59;5222565;28;20110;-73
2021/10/05 09:18:05;;;;;;;6.03;1.00;;;;;;;16.36;100.00;100336.91;5222171;28;20033;-73
2021/10/05 09:20:35;;;;;;;4.25;1.30;;;;;;;16.45;100.00;100329.38;5221991;28;20098;-73
2021/10/05 09:23:12;;;;;;;4.55;1.20;;;;;;;16.74;100.00;100328.81;5222364;28;20021;-73
2021/10/05 09:25:46;;;;;;;6.90;1.13;;;;;;;16.70;100.00;100327.53;5222052;28;20074;-73
2021/10/05 09:28:19;;;;;;;6.05;1.08;;;;;;;16.84;100.00;100333.72;5222175;28;20021;-73
2021/10/05 09:30:57;;;;;;;2.40;0.90;;;;;;;16.73;100.00;100329.84;5222011;28;20033;-73
2021/10/05 09:33:28;;;;;;;3.72;1.30;;;;;;;16.88;100.00;100329.53;5221347;28;20355;-73
2021/10/05 09:35:59;;;;;;;5.78;0.90;;;;;;;16.83;100.00;100334.78;5221763;28;20078;-74
2021/10/05 09:38:31;;;;;;;7.43;1.00;;;;;;;17.25;100.00;100335.06;5222130;28;20482;-73
2021/10/05 09:41:05;;;;;;;3.40;1.00;;;;;;;17.52;100.00;100333.78;5221117;28;20054;-73
2021/10/05 09:43:36;;;;;;;6.70;1.00;;;;;;;17.32;100.00;100341.28;5221739;28;20044;-73
2021/10/05 09:46:08;;;;;;;8.27;1.00;;;;;;;17.15;100.00;100351.00;5221827;28;20029;-73
2021/10/05 09:48:39;;;;;;;7.38;1.88;;;;;;;17.07;100.00;100347.53;5222146;28;20029;-73
2021/10/05 09:51:23;;;;;;;2.42;0.82;;;;;;;16.89;100.00;100349.34;5221733;28;20033;-73
2021/10/05 09:53:56;;;;;;;2.35;0.82;;;;;;;16.54;100.00;100345.16;5221408;28;20035;-73
2021/10/05 09:56:28;;;;;;;6.65;0.70;;;;;;;16.37;100.00;100343.19;5221401;28;20051;-72
2021/10/05 09:58:59;;;;;;;2.92;0.93;;;;;;;16.27;100.00;100339.06;5221127;28;20028;-73
2021/10/05 10:01:30;;;;;;;7.47;1.30;;;;;;;16.36;100.00;100344.19;5221614;28;20017;-73
2021/10/05 10:04:01;;;;;;;6.35;1.13;;;;;;;16.55;100.00;100335.13;5221600;28;20025;-73
2021/10/05 10:06:32;;;;;;;5.50;0.95;;;;;;;16.42;100.00;100336.06;5220699;28;20020;-73
2021/10/05 10:09:04;;;;;;;4.78;1.48;;;;;;;16.17;100.00;100335.16;5221402;28;20040;-73
2021/10/05 10:11:35;;;;;;;4.75;0.90;;;;;;;16.09;100.00;100347.03;5221530;28;20056;-73
2021/10/05 10:14:05;;;;;;;4.28;1.00;;;;;;;15.83;100.00;100339.03;5221308;28;20117;-73
2021/10/05 10:16:36;;;;;;;3.40;0.80;;;;;;;15.54;100.00;100324.91;5220975;28;20025;-73
2021/10/05 10:19:07;;;;;;;3.63;1.00;;;;;;;15.50;100.00;100340.72;5220469;28;20075;-73
2021/10/05 10:21:37;;;;;;;3.28;1.15;;;;;;;15.41;100.00;100333.03;5219863;28;20115;-73
2021/10/05 10:24:18;;;;;;;2.08;0.75;;;;;;;15.27;100.00;100334.94;5221180;28;20414;-73
2021/10/05 10:26:55;;;;;;;2.55;0.98;;;;;;;15.24;100.00;100332.66;5208409;28;20535;-73
2021/10/05 10:29:28;;;;;;;4.90;0.80;;;;;;;15.31;100.00;100327.22;5220366;28;20051;-73
2021/10/05 10:32:13;;;;;;;5.95;1.05;;;;;;;15.25;100.00;100329.72;5221586;28;20029;-73
2021/10/05 10:34:46;;;;;;;8.82;1.13;;;;;;;15.17;100.00;100327.28;5221089;28;20451;-73
2021/10/05 10:37:20;;;;;;;5.13;1.13;;;;;;;15.02;100.00;100332.88;5220706;28;20383;-73
2021/10/05 10:39:53;;;;;;;5.47;1.20;;;;;;;14.92;100.00;100327.06;5220643;28;20021;-73
2021/10/05 10:42:27;;;;;;;5.82;1.00;;;;;;;14.54;100.00;100326.78;5220516;28;20440;-73
2021/10/05 10:44:57;;;;;;;7.55;1.45;;;;;;;14.42;100.00;100331.94;5252319;28;20025;-74
2021/10/05 10:47:38;;;;;;;6.75;1.20;;;;;;;14.37;100.00;100326.31;5220802;28;20028;-73
2021/10/05 10:50:12;;;;;;;4.53;1.50;;;;;;;14.28;100.00;100321.31;5220088;28;20055;-73
2021/10/05 10:52:45;;;;;;;6.57;1.10;;;;;;;14.09;100.00;100310.25;5220670;28;20048;-73
2021/10/05 10:55:20;;;;;;;6.40;1.20;;;;;;;14.04;100.00;100309.19;5220645;28;20069;-74
2021/10/05 10:57:50;;;;;;;5.03;1.38;;;;;;;13.95;100.00;100311.22;5220535;28;20096;-74
2021/10/05 11:00:24;;;;;;;4.60;1.17;;;;;;;13.96;100.00;100311.03;5220492;28;20120;-74
2021/10/05 11:02:56;;;;;;;6.57;1.20;;;;;;;13.87;100.00;100303.31;5219686;28;20025;-73
2021/10/05 11:05:32;;;;;;;7.32;1.50;;;;;;;13.86;100.00;100296.28;5220140;28;20083;-74
2021/10/05 11:08:10;;;;;;;3.17;1.30;;;;;;;13.63;100.00;100294.69;5225238;28;20180;-74
2021/10/05 11:10:41;;;;;;;6.90;1.48;;;;;;;13.48;100.00;100288.59;5220797;28;20032;-74
2021/10/05 11:13:11;;;;;;;7.53;2.28;;;;;;;13.27;100.00;100283.31;5220271;28;20021;-73
2021/10/05 11:15:45;;;;;;;4.05;1.63;;;;;;;13.16;100.00;100280.09;5221075;28;20021;-74
2021/10/05 11:18:18;;;;;;;6.32;1.77;;;;;;;13.13;100.00;100275.09;5220550;28;20025;-73
2021/10/05 11:20:48;;;;;;;11.32;1.77;;;;;;;13.09;100.00;100273.81;5220648;28;20021;-74
2021/10/05 11:23:21;;;;;;;8.07;3.13;;;;;;;13.00;100.00;100275.00;5220336;28;20021;-74
2021/10/05 11:25:56;;;;;;;8.20;2.60;;;;;;;12.96;100.00;100265.66;5220212;28;20029;-74
2021/10/05 11:28:29;;;;;;;7.68;1.73;;;;;;;12.90;100.00;100258.34;5220741;28;20028;-74
2021/10/05 11:31:04;;;;;;;6.30;1.95;;;;;;;12.87;100.00;100259.59;5219942;28;20021;-74
2021/10/05 11:33:39;;;;;;;5.45;2.50;;;;;;;12.89;100.00;100257.50;5220272;28;20025;-73
2021/10/05 11:36:13;;;;;;;8.45;1.83;;;;;;;12.85;100.00;100250.88;5220319;28;20087;-74